sensor_id;sensor_type;location;lat;lon;timestamp;P1;durP1;ratioP1;P2;durP2;ratioP2
72501;SDS011;60524;49.874;8.652;2023-04-24T00:02:18;1.90;;;0.80;;
72501;SDS011;60524;49.874;8.652;2023-04-24T00:04:43;1.55;;;0.60;;
72501;SDS011;60524;49.874;8.652;2023-04-24T00:07:12;0.80;;;0.50;;
72501;SDS011;60524;49.874;8.652;2023-04-24T00:09:38;3.55;;;0.68;;
72501;SDS011;60524;49.874;8.652;2023-04-24T00:12:03;1.42;;;0.70;;
72501;SDS011;60524;49.874;8.652;2023-04-24T00:14:29;1.17;;;0.60;;
72501;SDS011;60524;49.874;8.652;2023-04-24T00:16:55;5.20;;;0.60;;
72501;SDS011;60524;49.874;8.652;2023-04-24T00:19:20;2.87;;;0.80;;
72501;SDS011;60524;49.874;8.652;2023-04-24T00:21:46;1.45;;;0.50;;
72501;SDS011;60524;49.874;8.652;2023-04-24T00:24:14;4.40;;;0.75;;
72501;SDS011;60524;49.874;8.652;2023-04-24T00:26:40;0.85;;;0.50;;
72501;SDS011;60524;49.874;8.652;2023-04-24T00:29:05;0.90;;;0.47;;
72501;SDS011;60524;49.874;8.652;2023-04-24T00:31:30;1.53;;;0.70;;
72501;SDS011;60524;49.874;8.652;2023-04-24T00:33:56;3.03;;;0.60;;
72501;SDS011;60524;49.874;8.652;2023-04-24T00:36:21;1.70;;;0.70;;
72501;SDS011;60524;49.874;8.652;2023-04-24T00:38:46;2.20;;;0.53;;
72501;SDS011;60524;49.874;8.652;2023-04-24T00:41:11;3.67;;;0.50;;
72501;SDS011;60524;49.874;8.652;2023-04-24T00:43:37;1.63;;;0.60;;
72501;SDS011;60524;49.874;8.652;2023-04-24T00:46:03;6.97;;;0.80;;
72501;SDS011;60524;49.874;8.652;2023-04-24T00:48:28;6.18;;;0.95;;
72501;SDS011;60524;49.874;8.652;2023-04-24T00:50:54;3.35;;;0.80;;
72501;SDS011;60524;49.874;8.652;2023-04-24T00:53:20;0.93;;;0.60;;
72501;SDS011;60524;49.874;8.652;2023-04-24T00:55:45;3.28;;;0.88;;
72501;SDS011;60524;49.874;8.652;2023-04-24T00:58:11;1.80;;;0.70;;
72501;SDS011;60524;49.874;8.652;2023-04-24T01:00:37;2.60;;;0.90;;
72501;SDS011;60524;49.874;8.652;2023-04-24T01:03:02;0.83;;;0.63;;
72501;SDS011;60524;49.874;8.652;2023-04-24T01:05:29;2.45;;;0.88;;
72501;SDS011;60524;49.874;8.652;2023-04-24T01:07:54;4.17;;;0.87;;
72501;SDS011;60524;49.874;8.652;2023-04-24T01:10:20;3.72;;;0.60;;
72501;SDS011;60524;49.874;8.652;2023-04-24T01:12:46;4.33;;;0.90;;
72501;SDS011;60524;49.874;8.652;2023-04-24T01:15:11;2.38;;;0.80;;
72501;SDS011;60524;49.874;8.652;2023-04-24T01:17:36;1.17;;;0.77;;
72501;SDS011;60524;49.874;8.652;2023-04-24T01:20:01;1.30;;;0.80;;
72501;SDS011;60524;49.874;8.652;2023-04-24T01:22:30;5.28;;;0.80;;
72501;SDS011;60524;49.874;8.652;2023-04-24T01:24:55;1.38;;;0.70;;
72501;SDS011;60524;49.874;8.652;2023-04-24T01:27:21;1.35;;;0.90;;
72501;SDS011;60524;49.874;8.652;2023-04-24T01:29:46;3.10;;;0.60;;
72501;SDS011;60524;49.874;8.652;2023-04-24T01:32:14;2.08;;;0.80;;
72501;SDS011;60524;49.874;8.652;2023-04-24T01:34:40;2.35;;;0.70;;
72501;SDS011;60524;49.874;8.652;2023-04-24T01:37:05;1.30;;;0.80;;
72501;SDS011;60524;49.874;8.652;2023-04-24T01:39:30;2.20;;;0.90;;
72501;SDS011;60524;49.874;8.652;2023-04-24T01:41:56;3.83;;;0.80;;
72501;SDS011;60524;49.874;8.652;2023-04-24T01:44:22;3.50;;;0.63;;
72501;SDS011;60524;49.874;8.652;2023-04-24T01:46:48;2.60;;;0.80;;
72501;SDS011;60524;49.874;8.652;2023-04-24T01:49:13;4.90;;;0.90;;
72501;SDS011;60524;49.874;8.652;2023-04-24T01:51:38;2.20;;;0.80;;
72501;SDS011;60524;49.874;8.652;2023-04-24T01:54:04;2.07;;;0.70;;
72501;SDS011;60524;49.874;8.652;2023-04-24T01:56:30;2.08;;;1.02;;
72501;SDS011;60524;49.874;8.652;2023-04-24T01:58:56;2.53;;;0.60;;
72501;SDS011;60524;49.874;8.652;2023-04-24T02:01:23;1.30;;;0.50;;
72501;SDS011;60524;49.874;8.652;2023-04-24T02:03:49;1.92;;;0.85;;
72501;SDS011;60524;49.874;8.652;2023-04-24T02:06:14;3.20;;;0.80;;
72501;SDS011;60524;49.874;8.652;2023-04-24T02:08:39;5.90;;;0.70;;
72501;SDS011;60524;49.874;8.652;2023-04-24T02:11:05;3.00;;;0.90;;
72501;SDS011;60524;49.874;8.652;2023-04-24T02:13:30;1.55;;;0.80;;
72501;SDS011;60524;49.874;8.652;2023-04-24T02:15:56;1.95;;;0.95;;
72501;SDS011;60524;49.874;8.652;2023-04-24T02:18:23;2.05;;;0.70;;
72501;SDS011;60524;49.874;8.652;2023-04-24T02:20:48;1.20;;;0.60;;
72501;SDS011;60524;49.874;8.652;2023-04-24T02:23:13;1.23;;;0.60;;
72501;SDS011;60524;49.874;8.652;2023-04-24T02:25:39;2.08;;;0.70;;
72501;SDS011;60524;49.874;8.652;2023-04-24T02:28:04;3.07;;;0.73;;
72501;SDS011;60524;49.874;8.652;2023-04-24T02:30:30;2.70;;;0.60;;
72501;SDS011;60524;49.874;8.652;2023-04-24T02:32:55;4.35;;;1.00;;
72501;SDS011;60524;49.874;8.652;2023-04-24T02:35:20;3.20;;;0.90;;
72501;SDS011;60524;49.874;8.652;2023-04-24T02:37:46;2.07;;;0.80;;
72501;SDS011;60524;49.874;8.652;2023-04-24T02:40:11;1.47;;;0.83;;
72501;SDS011;60524;49.874;8.652;2023-04-24T02:42:36;2.70;;;0.70;;
72501;SDS011;60524;49.874;8.652;2023-04-24T02:45:02;1.33;;;0.70;;
72501;SDS011;60524;49.874;8.652;2023-04-24T02:47:27;1.88;;;0.90;;
72501;SDS011;60524;49.874;8.652;2023-04-24T02:49:52;2.83;;;0.80;;
72501;SDS011;60524;49.874;8.652;2023-04-24T02:52:18;3.70;;;1.17;;
72501;SDS011;60524;49.874;8.652;2023-04-24T02:54:43;8.33;;;2.33;;
72501;SDS011;60524;49.874;8.652;2023-04-24T02:57:08;1.60;;;0.73;;
72501;SDS011;60524;49.874;8.652;2023-04-24T02:59:34;3.57;;;0.90;;
72501;SDS011;60524;49.874;8.652;2023-04-24T03:01:59;1.88;;;0.90;;
72501;SDS011;60524;49.874;8.652;2023-04-24T03:04:25;5.75;;;0.90;;
72501;SDS011;60524;49.874;8.652;2023-04-24T03:06:51;1.52;;;0.88;;
72501;SDS011;60524;49.874;8.652;2023-04-24T03:09:19;3.63;;;0.80;;
72501;SDS011;60524;49.874;8.652;2023-04-24T03:11:45;4.35;;;0.88;;
72501;SDS011;60524;49.874;8.652;2023-04-24T03:14:10;4.60;;;1.30;;
72501;SDS011;60524;49.874;8.652;2023-04-24T03:16:35;4.00;;;1.20;;
72501;SDS011;60524;49.874;8.652;2023-04-24T03:19:00;1.50;;;0.90;;
72501;SDS011;60524;49.874;8.652;2023-04-24T03:21:26;2.33;;;0.90;;
72501;SDS011;60524;49.874;8.652;2023-04-24T03:23:51;3.03;;;0.90;;
72501;SDS011;60524;49.874;8.652;2023-04-24T03:26:16;3.90;;;1.00;;
72501;SDS011;60524;49.874;8.652;2023-04-24T03:28:42;2.85;;;1.05;;
72501;SDS011;60524;49.874;8.652;2023-04-24T03:31:07;2.43;;;1.00;;
72501;SDS011;60524;49.874;8.652;2023-04-24T03:33:32;4.87;;;1.20;;
72501;SDS011;60524;49.874;8.652;2023-04-24T03:35:58;2.73;;;1.43;;
72501;SDS011;60524;49.874;8.652;2023-04-24T03:38:23;2.60;;;1.10;;
72501;SDS011;60524;49.874;8.652;2023-04-24T03:40:48;2.70;;;1.10;;
72501;SDS011;60524;49.874;8.652;2023-04-24T03:43:13;3.60;;;0.90;;
72501;SDS011;60524;49.874;8.652;2023-04-24T03:45:39;3.43;;;1.23;;
72501;SDS011;60524;49.874;8.652;2023-04-24T03:48:04;1.97;;;0.90;;
72501;SDS011;60524;49.874;8.652;2023-04-24T03:50:29;3.63;;;1.03;;
72501;SDS011;60524;49.874;8.652;2023-04-24T03:52:54;2.83;;;1.10;;
72501;SDS011;60524;49.874;8.652;2023-04-24T03:55:20;2.20;;;1.03;;
72501;SDS011;60524;49.874;8.652;2023-04-24T03:57:45;2.23;;;1.17;;
72501;SDS011;60524;49.874;8.652;2023-04-24T04:00:10;4.73;;;1.10;;
72501;SDS011;60524;49.874;8.652;2023-04-24T04:02:36;2.35;;;1.20;;
72501;SDS011;60524;49.874;8.652;2023-04-24T04:05:02;1.60;;;1.10;;
72501;SDS011;60524;49.874;8.652;2023-04-24T04:07:27;2.37;;;1.23;;
72501;SDS011;60524;49.874;8.652;2023-04-24T04:09:52;2.27;;;1.17;;
72501;SDS011;60524;49.874;8.652;2023-04-24T04:12:17;3.20;;;1.30;;
72501;SDS011;60524;49.874;8.652;2023-04-24T04:14:43;4.23;;;1.60;;
72501;SDS011;60524;49.874;8.652;2023-04-24T04:17:08;4.70;;;1.33;;
72501;SDS011;60524;49.874;8.652;2023-04-24T04:19:33;4.70;;;1.57;;
72501;SDS011;60524;49.874;8.652;2023-04-24T04:21:58;4.23;;;1.27;;
72501;SDS011;60524;49.874;8.652;2023-04-24T04:24:24;1.60;;;1.20;;
72501;SDS011;60524;49.874;8.652;2023-04-24T04:26:49;4.07;;;1.23;;
72501;SDS011;60524;49.874;8.652;2023-04-24T04:29:16;2.70;;;1.70;;
72501;SDS011;60524;49.874;8.652;2023-04-24T04:31:42;3.15;;;1.60;;
72501;SDS011;60524;49.874;8.652;2023-04-24T04:34:08;3.53;;;1.40;;
72501;SDS011;60524;49.874;8.652;2023-04-24T04:36:34;3.45;;;1.77;;
72501;SDS011;60524;49.874;8.652;2023-04-24T04:39:01;5.07;;;1.60;;
72501;SDS011;60524;49.874;8.652;2023-04-24T04:41:27;4.10;;;1.83;;
72501;SDS011;60524;49.874;8.652;2023-04-24T04:43:53;3.07;;;1.80;;
72501;SDS011;60524;49.874;8.652;2023-04-24T04:46:18;3.07;;;1.70;;
72501;SDS011;60524;49.874;8.652;2023-04-24T04:48:43;2.93;;;1.87;;
72501;SDS011;60524;49.874;8.652;2023-04-24T04:51:08;6.30;;;2.30;;
72501;SDS011;60524;49.874;8.652;2023-04-24T04:53:34;4.37;;;2.00;;
72501;SDS011;60524;49.874;8.652;2023-04-24T04:55:59;4.70;;;2.30;;
72501;SDS011;60524;49.874;8.652;2023-04-24T04:58:25;3.80;;;2.10;;
72501;SDS011;60524;49.874;8.652;2023-04-24T05:00:50;4.20;;;2.40;;
72501;SDS011;60524;49.874;8.652;2023-04-24T05:03:17;3.50;;;2.00;;
72501;SDS011;60524;49.874;8.652;2023-04-24T05:05:42;3.80;;;2.33;;
72501;SDS011;60524;49.874;8.652;2023-04-24T05:08:07;4.90;;;2.20;;
72501;SDS011;60524;49.874;8.652;2023-04-24T05:10:33;5.43;;;2.55;;
72501;SDS011;60524;49.874;8.652;2023-04-24T05:12:58;3.92;;;2.25;;
72501;SDS011;60524;49.874;8.652;2023-04-24T05:15:24;6.60;;;2.40;;
72501;SDS011;60524;49.874;8.652;2023-04-24T05:17:49;4.63;;;2.57;;
72501;SDS011;60524;49.874;8.652;2023-04-24T05:20:15;3.83;;;2.63;;
72501;SDS011;60524;49.874;8.652;2023-04-24T05:22:40;3.33;;;2.17;;
72501;SDS011;60524;49.874;8.652;2023-04-24T05:25:05;3.60;;;2.40;;
72501;SDS011;60524;49.874;8.652;2023-04-24T05:27:30;4.82;;;2.75;;
72501;SDS011;60524;49.874;8.652;2023-04-24T05:29:56;6.70;;;2.60;;
72501;SDS011;60524;49.874;8.652;2023-04-24T05:32:21;3.13;;;2.30;;
72501;SDS011;60524;49.874;8.652;2023-04-24T05:34:46;4.83;;;2.57;;
72501;SDS011;60524;49.874;8.652;2023-04-24T05:37:12;4.63;;;2.20;;
72501;SDS011;60524;49.874;8.652;2023-04-24T05:39:37;4.43;;;2.97;;
72501;SDS011;60524;49.874;8.652;2023-04-24T05:42:03;4.20;;;2.95;;
72501;SDS011;60524;49.874;8.652;2023-04-24T05:44:29;3.75;;;2.28;;
72501;SDS011;60524;49.874;8.652;2023-04-24T05:46:54;3.60;;;2.17;;
72501;SDS011;60524;49.874;8.652;2023-04-24T05:49:20;3.83;;;2.55;;
72501;SDS011;60524;49.874;8.652;2023-04-24T05:51:46;3.80;;;2.53;;
72501;SDS011;60524;49.874;8.652;2023-04-24T05:54:11;9.67;;;2.70;;
72501;SDS011;60524;49.874;8.652;2023-04-24T05:56:37;5.97;;;2.65;;
72501;SDS011;60524;49.874;8.652;2023-04-24T05:59:02;9.23;;;2.60;;
72501;SDS011;60524;49.874;8.652;2023-04-24T06:01:28;2.75;;;2.08;;
72501;SDS011;60524;49.874;8.652;2023-04-24T06:03:53;6.25;;;3.03;;
72501;SDS011;60524;49.874;8.652;2023-04-24T06:06:19;3.87;;;2.70;;
72501;SDS011;60524;49.874;8.652;2023-04-24T06:08:44;5.57;;;2.77;;
72501;SDS011;60524;49.874;8.652;2023-04-24T06:11:10;7.47;;;2.70;;
72501;SDS011;60524;49.874;8.652;2023-04-24T06:13:35;6.83;;;2.57;;
72501;SDS011;60524;49.874;8.652;2023-04-24T06:16:00;3.87;;;2.67;;
72501;SDS011;60524;49.874;8.652;2023-04-24T06:18:26;3.88;;;2.33;;
72501;SDS011;60524;49.874;8.652;2023-04-24T06:20:51;4.20;;;2.07;;
72501;SDS011;60524;49.874;8.652;2023-04-24T06:23:17;4.17;;;2.67;;
72501;SDS011;60524;49.874;8.652;2023-04-24T06:25:42;8.43;;;2.77;;
72501;SDS011;60524;49.874;8.652;2023-04-24T06:28:07;3.53;;;2.50;;
72501;SDS011;60524;49.874;8.652;2023-04-24T06:30:32;5.03;;;2.43;;
72501;SDS011;60524;49.874;8.652;2023-04-24T06:32:58;4.60;;;2.77;;
72501;SDS011;60524;49.874;8.652;2023-04-24T06:35:23;5.65;;;2.83;;
72501;SDS011;60524;49.874;8.652;2023-04-24T06:37:48;3.60;;;2.63;;
72501;SDS011;60524;49.874;8.652;2023-04-24T06:40:14;6.33;;;2.60;;
72501;SDS011;60524;49.874;8.652;2023-04-24T06:42:39;4.03;;;2.40;;
72501;SDS011;60524;49.874;8.652;2023-04-24T06:45:04;6.73;;;2.80;;
72501;SDS011;60524;49.874;8.652;2023-04-24T06:47:30;3.17;;;2.40;;
72501;SDS011;60524;49.874;8.652;2023-04-24T06:49:56;5.07;;;2.72;;
72501;SDS011;60524;49.874;8.652;2023-04-24T06:52:21;7.10;;;3.90;;
72501;SDS011;60524;49.874;8.652;2023-04-24T06:54:46;5.87;;;3.37;;
72501;SDS011;60524;49.874;8.652;2023-04-24T06:57:12;6.00;;;3.40;;
72501;SDS011;60524;49.874;8.652;2023-04-24T06:59:37;7.35;;;3.25;;
72501;SDS011;60524;49.874;8.652;2023-04-24T07:02:02;4.78;;;3.10;;
72501;SDS011;60524;49.874;8.652;2023-04-24T07:04:28;5.17;;;3.23;;
72501;SDS011;60524;49.874;8.652;2023-04-24T07:06:54;4.80;;;3.30;;
72501;SDS011;60524;49.874;8.652;2023-04-24T07:09:20;6.55;;;3.40;;
72501;SDS011;60524;49.874;8.652;2023-04-24T07:11:46;7.60;;;4.22;;
72501;SDS011;60524;49.874;8.652;2023-04-24T07:14:12;6.70;;;3.67;;
72501;SDS011;60524;49.874;8.652;2023-04-24T07:16:38;8.60;;;3.75;;
72501;SDS011;60524;49.874;8.652;2023-04-24T07:19:03;6.07;;;3.45;;
72501;SDS011;60524;49.874;8.652;2023-04-24T07:21:29;4.40;;;2.88;;
72501;SDS011;60524;49.874;8.652;2023-04-24T07:23:56;5.07;;;2.97;;
72501;SDS011;60524;49.874;8.652;2023-04-24T07:26:21;7.83;;;3.50;;
72501;SDS011;60524;49.874;8.652;2023-04-24T07:28:46;5.53;;;3.50;;
72501;SDS011;60524;49.874;8.652;2023-04-24T07:31:11;9.13;;;3.10;;
72501;SDS011;60524;49.874;8.652;2023-04-24T07:33:37;6.03;;;3.00;;
72501;SDS011;60524;49.874;8.652;2023-04-24T07:36:03;5.78;;;3.30;;
72501;SDS011;60524;49.874;8.652;2023-04-24T07:38:31;5.60;;;3.58;;
72501;SDS011;60524;49.874;8.652;2023-04-24T07:40:57;6.40;;;3.92;;
72501;SDS011;60524;49.874;8.652;2023-04-24T07:43:22;5.00;;;2.92;;
72501;SDS011;60524;49.874;8.652;2023-04-24T07:45:48;5.95;;;3.50;;
72501;SDS011;60524;49.874;8.652;2023-04-24T07:48:14;6.75;;;3.78;;
72501;SDS011;60524;49.874;8.652;2023-04-24T07:50:41;4.70;;;3.05;;
72501;SDS011;60524;49.874;8.652;2023-04-24T07:53:06;6.75;;;3.83;;
72501;SDS011;60524;49.874;8.652;2023-04-24T07:55:33;6.53;;;3.60;;
72501;SDS011;60524;49.874;8.652;2023-04-24T07:57:58;5.37;;;3.10;;
72501;SDS011;60524;49.874;8.652;2023-04-24T08:00:23;6.80;;;3.93;;
72501;SDS011;60524;49.874;8.652;2023-04-24T08:02:49;3.67;;;2.30;;
72501;SDS011;60524;49.874;8.652;2023-04-24T08:05:14;4.57;;;2.50;;
72501;SDS011;60524;49.874;8.652;2023-04-24T08:07:39;2.85;;;1.58;;
72501;SDS011;60524;49.874;8.652;2023-04-24T08:10:07;4.57;;;1.70;;
72501;SDS011;60524;49.874;8.652;2023-04-24T08:12:34;7.05;;;1.40;;
72501;SDS011;60524;49.874;8.652;2023-04-24T08:14:59;2.10;;;1.40;;
72501;SDS011;60524;49.874;8.652;2023-04-24T08:17:25;1.87;;;1.37;;
72501;SDS011;60524;49.874;8.652;2023-04-24T08:19:50;1.55;;;1.00;;
72501;SDS011;60524;49.874;8.652;2023-04-24T08:22:17;1.80;;;1.27;;
72501;SDS011;60524;49.874;8.652;2023-04-24T08:24:42;3.17;;;1.43;;
72501;SDS011;60524;49.874;8.652;2023-04-24T08:27:08;2.88;;;1.30;;
72501;SDS011;60524;49.874;8.652;2023-04-24T08:29:34;2.60;;;1.60;;
72501;SDS011;60524;49.874;8.652;2023-04-24T08:31:59;3.83;;;1.60;;
72501;SDS011;60524;49.874;8.652;2023-04-24T08:34:25;2.80;;;1.83;;
72501;SDS011;60524;49.874;8.652;2023-04-24T08:36:50;2.07;;;1.60;;
72501;SDS011;60524;49.874;8.652;2023-04-24T08:39:15;2.47;;;1.47;;
72501;SDS011;60524;49.874;8.652;2023-04-24T08:41:42;2.35;;;1.45;;
72501;SDS011;60524;49.874;8.652;2023-04-24T08:44:08;5.18;;;1.80;;
72501;SDS011;60524;49.874;8.652;2023-04-24T08:46:34;4.55;;;1.70;;
72501;SDS011;60524;49.874;8.652;2023-04-24T08:49:00;3.33;;;1.40;;
72501;SDS011;60524;49.874;8.652;2023-04-24T08:51:27;3.03;;;1.70;;
72501;SDS011;60524;49.874;8.652;2023-04-24T08:53:53;3.50;;;1.90;;
72501;SDS011;60524;49.874;8.652;2023-04-24T08:56:18;4.07;;;1.92;;
72501;SDS011;60524;49.874;8.652;2023-04-24T08:58:44;3.97;;;2.35;;
72501;SDS011;60524;49.874;8.652;2023-04-24T09:01:10;2.92;;;1.83;;
72501;SDS011;60524;49.874;8.652;2023-04-24T09:03:36;3.67;;;2.25;;
72501;SDS011;60524;49.874;8.652;2023-04-24T09:06:01;3.63;;;2.03;;
72501;SDS011;60524;49.874;8.652;2023-04-24T09:08:27;4.07;;;1.80;;
72501;SDS011;60524;49.874;8.652;2023-04-24T09:10:53;4.88;;;1.70;;
72501;SDS011;60524;49.874;8.652;2023-04-24T09:13:18;6.27;;;1.80;;
72501;SDS011;60524;49.874;8.652;2023-04-24T09:15:44;3.80;;;1.95;;
72501;SDS011;60524;49.874;8.652;2023-04-24T09:18:10;3.22;;;2.17;;
72501;SDS011;60524;49.874;8.652;2023-04-24T09:20:51;2.63;;;1.90;;
72501;SDS011;60524;49.874;8.652;2023-04-24T09:23:26;3.42;;;1.88;;
72501;SDS011;60524;49.874;8.652;2023-04-24T09:25:54;4.28;;;1.88;;
72501;SDS011;60524;49.874;8.652;2023-04-24T09:28:22;2.40;;;1.80;;
72501;SDS011;60524;49.874;8.652;2023-04-24T09:31:01;3.55;;;1.60;;
72501;SDS011;60524;49.874;8.652;2023-04-24T09:33:27;2.65;;;1.52;;
72501;SDS011;60524;49.874;8.652;2023-04-24T09:35:52;3.03;;;1.97;;
72501;SDS011;60524;49.874;8.652;2023-04-24T09:38:18;3.30;;;1.93;;
72501;SDS011;60524;49.874;8.652;2023-04-24T09:40:43;3.23;;;1.83;;
72501;SDS011;60524;49.874;8.652;2023-04-24T09:43:11;3.77;;;2.07;;
72501;SDS011;60524;49.874;8.652;2023-04-24T09:45:37;5.65;;;1.80;;
72501;SDS011;60524;49.874;8.652;2023-04-24T09:48:04;2.60;;;1.73;;
72501;SDS011;60524;49.874;8.652;2023-04-24T09:50:31;3.35;;;1.90;;
72501;SDS011;60524;49.874;8.652;2023-04-24T09:52:58;6.63;;;2.22;;
72501;SDS011;60524;49.874;8.652;2023-04-24T09:55:24;4.95;;;1.70;;
72501;SDS011;60524;49.874;8.652;2023-04-24T09:57:55;2.95;;;2.00;;
72501;SDS011;60524;49.874;8.652;2023-04-24T10:00:25;3.28;;;1.73;;
72501;SDS011;60524;49.874;8.652;2023-04-24T10:02:58;2.80;;;1.80;;
72501;SDS011;60524;49.874;8.652;2023-04-24T10:05:27;4.65;;;1.90;;
72501;SDS011;60524;49.874;8.652;2023-04-24T10:07:57;2.05;;;1.40;;
72501;SDS011;60524;49.874;8.652;2023-04-24T10:10:25;3.67;;;2.50;;
72501;SDS011;60524;49.874;8.652;2023-04-24T10:12:50;4.72;;;1.60;;
72501;SDS011;60524;49.874;8.652;2023-04-24T10:15:16;2.75;;;1.33;;
72501;SDS011;60524;49.874;8.652;2023-04-24T10:17:45;3.92;;;1.90;;
72501;SDS011;60524;49.874;8.652;2023-04-24T10:20:17;3.42;;;1.60;;
72501;SDS011;60524;49.874;8.652;2023-04-24T10:22:43;3.38;;;2.05;;
72501;SDS011;60524;49.874;8.652;2023-04-24T10:25:11;2.72;;;1.70;;
72501;SDS011;60524;49.874;8.652;2023-04-24T10:27:36;1.92;;;1.42;;
72501;SDS011;60524;49.874;8.652;2023-04-24T10:30:03;2.80;;;1.92;;
72501;SDS011;60524;49.874;8.652;2023-04-24T10:32:28;3.30;;;1.98;;
72501;SDS011;60524;49.874;8.652;2023-04-24T10:34:54;2.63;;;1.58;;
72501;SDS011;60524;49.874;8.652;2023-04-24T10:37:21;3.33;;;1.85;;
72501;SDS011;60524;49.874;8.652;2023-04-24T10:39:49;2.28;;;1.60;;
72501;SDS011;60524;49.874;8.652;2023-04-24T10:42:16;3.65;;;2.00;;
72501;SDS011;60524;49.874;8.652;2023-04-24T10:44:41;3.92;;;1.48;;
72501;SDS011;60524;49.874;8.652;2023-04-24T10:47:07;2.30;;;1.53;;
72501;SDS011;60524;49.874;8.652;2023-04-24T10:49:37;3.55;;;1.60;;
72501;SDS011;60524;49.874;8.652;2023-04-24T10:52:03;5.15;;;1.48;;
72501;SDS011;60524;49.874;8.652;2023-04-24T10:54:36;3.92;;;1.80;;
72501;SDS011;60524;49.874;8.652;2023-04-24T10:59:45;3.20;;;1.42;;
72501;SDS011;60524;49.874;8.652;2023-04-24T11:02:10;3.75;;;1.88;;
72501;SDS011;60524;49.874;8.652;2023-04-24T11:04:35;2.80;;;1.63;;
72501;SDS011;60524;49.874;8.652;2023-04-24T11:07:02;3.47;;;1.93;;
72501;SDS011;60524;49.874;8.652;2023-04-24T11:09:28;2.40;;;1.80;;
72501;SDS011;60524;49.874;8.652;2023-04-24T11:12:08;4.13;;;2.10;;
72501;SDS011;60524;49.874;8.652;2023-04-24T11:20:06;4.38;;;2.47;;
72501;SDS011;60524;49.874;8.652;2023-04-24T11:22:34;5.63;;;2.00;;
72501;SDS011;60524;49.874;8.652;2023-04-24T11:25:01;5.95;;;2.45;;
72501;SDS011;60524;49.874;8.652;2023-04-24T11:27:28;5.85;;;2.28;;
72501;SDS011;60524;49.874;8.652;2023-04-24T11:35:04;3.67;;;2.20;;
72501;SDS011;60524;49.874;8.652;2023-04-24T11:37:41;2.28;;;1.50;;
72501;SDS011;60524;49.874;8.652;2023-04-24T11:40:09;6.55;;;2.70;;
72501;SDS011;60524;49.874;8.652;2023-04-24T11:42:39;8.40;;;2.33;;
72501;SDS011;60524;49.874;8.652;2023-04-24T11:45:09;4.10;;;2.20;;
72501;SDS011;60524;49.874;8.652;2023-04-24T11:47:35;7.55;;;2.55;;
72501;SDS011;60524;49.874;8.652;2023-04-24T11:50:00;4.20;;;1.90;;
72501;SDS011;60524;49.874;8.652;2023-04-24T11:52:27;4.70;;;2.55;;
72501;SDS011;60524;49.874;8.652;2023-04-24T11:54:53;4.68;;;2.50;;
72501;SDS011;60524;49.874;8.652;2023-04-24T11:57:19;3.73;;;2.13;;
72501;SDS011;60524;49.874;8.652;2023-04-24T11:59:45;2.72;;;1.60;;
72501;SDS011;60524;49.874;8.652;2023-04-24T12:02:19;3.50;;;1.92;;
72501;SDS011;60524;49.874;8.652;2023-04-24T12:04:54;6.15;;;2.30;;
72501;SDS011;60524;49.874;8.652;2023-04-24T12:07:19;3.58;;;2.10;;
72501;SDS011;60524;49.874;8.652;2023-04-24T12:09:50;3.22;;;2.00;;
72501;SDS011;60524;49.874;8.652;2023-04-24T12:12:20;6.85;;;1.75;;
72501;SDS011;60524;49.874;8.652;2023-04-24T12:14:52;3.17;;;1.88;;
72501;SDS011;60524;49.874;8.652;2023-04-24T12:17:23;9.98;;;1.73;;
72501;SDS011;60524;49.874;8.652;2023-04-24T12:19:59;6.50;;;1.80;;
72501;SDS011;60524;49.874;8.652;2023-04-24T12:22:27;4.00;;;1.58;;
72501;SDS011;60524;49.874;8.652;2023-04-24T12:25:00;3.00;;;1.80;;
72501;SDS011;60524;49.874;8.652;2023-04-24T12:27:31;2.95;;;1.85;;
72501;SDS011;60524;49.874;8.652;2023-04-24T12:29:57;3.50;;;2.05;;
72501;SDS011;60524;49.874;8.652;2023-04-24T12:32:23;3.00;;;2.00;;
72501;SDS011;60524;49.874;8.652;2023-04-24T12:34:50;3.20;;;2.00;;
72501;SDS011;60524;49.874;8.652;2023-04-24T12:37:18;3.45;;;2.00;;
72501;SDS011;60524;49.874;8.652;2023-04-24T12:42:30;6.22;;;2.95;;
72501;SDS011;60524;49.874;8.652;2023-04-24T12:44:57;3.80;;;2.35;;
72501;SDS011;60524;49.874;8.652;2023-04-24T12:47:26;4.10;;;2.45;;
72501;SDS011;60524;49.874;8.652;2023-04-24T12:49:52;4.75;;;2.35;;
72501;SDS011;60524;49.874;8.652;2023-04-24T12:52:18;3.63;;;2.30;;
72501;SDS011;60524;49.874;8.652;2023-04-24T12:54:45;4.07;;;2.00;;
72501;SDS011;60524;49.874;8.652;2023-04-24T12:57:10;4.72;;;2.45;;
72501;SDS011;60524;49.874;8.652;2023-04-24T12:59:36;5.40;;;2.00;;
72501;SDS011;60524;49.874;8.652;2023-04-24T13:02:01;4.93;;;2.07;;
72501;SDS011;60524;49.874;8.652;2023-04-24T13:04:26;5.67;;;2.67;;
72501;SDS011;60524;49.874;8.652;2023-04-24T13:06:51;6.73;;;2.60;;
72501;SDS011;60524;49.874;8.652;2023-04-24T13:09:17;5.43;;;2.30;;
72501;SDS011;60524;49.874;8.652;2023-04-24T13:11:42;4.60;;;1.93;;
72501;SDS011;60524;49.874;8.652;2023-04-24T13:14:07;3.65;;;2.05;;
72501;SDS011;60524;49.874;8.652;2023-04-24T13:16:33;6.47;;;1.97;;
72501;SDS011;60524;49.874;8.652;2023-04-24T13:18:58;4.13;;;2.17;;
72501;SDS011;60524;49.874;8.652;2023-04-24T13:21:23;3.97;;;1.80;;
72501;SDS011;60524;49.874;8.652;2023-04-24T13:23:49;4.93;;;1.97;;
72501;SDS011;60524;49.874;8.652;2023-04-24T13:26:14;3.90;;;1.93;;
72501;SDS011;60524;49.874;8.652;2023-04-24T13:28:39;3.67;;;1.95;;
72501;SDS011;60524;49.874;8.652;2023-04-24T13:31:04;4.33;;;2.30;;
72501;SDS011;60524;49.874;8.652;2023-04-24T13:33:31;4.10;;;1.98;;
72501;SDS011;60524;49.874;8.652;2023-04-24T13:35:56;4.27;;;2.37;;
72501;SDS011;60524;49.874;8.652;2023-04-24T13:38:21;3.13;;;2.05;;
72501;SDS011;60524;49.874;8.652;2023-04-24T13:40:47;4.40;;;2.40;;
72501;SDS011;60524;49.874;8.652;2023-04-24T13:43:12;4.27;;;1.87;;
72501;SDS011;60524;49.874;8.652;2023-04-24T13:45:38;4.28;;;2.10;;
72501;SDS011;60524;49.874;8.652;2023-04-24T13:48:03;4.13;;;1.92;;
72501;SDS011;60524;49.874;8.652;2023-04-24T13:50:28;3.33;;;2.00;;
72501;SDS011;60524;49.874;8.652;2023-04-24T13:52:54;4.93;;;2.45;;
72501;SDS011;60524;49.874;8.652;2023-04-24T13:55:21;4.20;;;1.88;;
72501;SDS011;60524;49.874;8.652;2023-04-24T13:57:46;4.83;;;2.30;;
72501;SDS011;60524;49.874;8.652;2023-04-24T14:00:12;4.67;;;2.30;;
72501;SDS011;60524;49.874;8.652;2023-04-24T14:02:38;4.25;;;1.98;;
72501;SDS011;60524;49.874;8.652;2023-04-24T14:05:03;3.70;;;1.80;;
72501;SDS011;60524;49.874;8.652;2023-04-24T14:07:29;20.92;;;2.53;;
72501;SDS011;60524;49.874;8.652;2023-04-24T14:09:54;2.73;;;1.90;;
72501;SDS011;60524;49.874;8.652;2023-04-24T14:12:19;4.13;;;2.20;;
72501;SDS011;60524;49.874;8.652;2023-04-24T14:14:46;4.30;;;2.45;;
72501;SDS011;60524;49.874;8.652;2023-04-24T14:17:12;4.15;;;2.00;;
72501;SDS011;60524;49.874;8.652;2023-04-24T14:19:37;3.37;;;1.97;;
72501;SDS011;60524;49.874;8.652;2023-04-24T14:22:02;6.10;;;2.17;;
72501;SDS011;60524;49.874;8.652;2023-04-24T14:24:28;4.67;;;2.27;;
72501;SDS011;60524;49.874;8.652;2023-04-24T14:26:53;3.37;;;2.20;;
72501;SDS011;60524;49.874;8.652;2023-04-24T14:29:18;3.47;;;1.97;;
72501;SDS011;60524;49.874;8.652;2023-04-24T14:31:44;4.65;;;2.00;;
72501;SDS011;60524;49.874;8.652;2023-04-24T14:34:09;3.50;;;1.67;;
72501;SDS011;60524;49.874;8.652;2023-04-24T14:36:35;4.53;;;1.90;;
72501;SDS011;60524;49.874;8.652;2023-04-24T14:39:00;3.10;;;1.90;;
72501;SDS011;60524;49.874;8.652;2023-04-24T14:41:30;4.15;;;1.83;;
72501;SDS011;60524;49.874;8.652;2023-04-24T14:43:56;3.97;;;1.90;;
72501;SDS011;60524;49.874;8.652;2023-04-24T14:46:21;3.20;;;1.90;;
72501;SDS011;60524;49.874;8.652;2023-04-24T14:48:46;2.30;;;1.57;;
72501;SDS011;60524;49.874;8.652;2023-04-24T14:51:12;4.37;;;1.70;;
72501;SDS011;60524;49.874;8.652;2023-04-24T14:53:37;4.17;;;2.10;;
72501;SDS011;60524;49.874;8.652;2023-04-24T14:56:02;2.63;;;1.40;;
72501;SDS011;60524;49.874;8.652;2023-04-24T14:58:28;3.27;;;1.80;;